Time;durP1;ratioP1;P1;durP2;ratioP2;P2;SDS_P1;SDS_P2;PMS_P1;PMS_P2;Temp;Humidity;BMP_temperature;BMP_pressure;BME280_temperature;BME280_humidity;BME280_pressure;Samples;Min_cycle;Max_cycle;Signal;HPM_P1;HPM_P2
2021/09/05 00:00:32;;;;;;;;;;;12.80;96.90;;;;;;5060940;28;19916;-76
2021/09/05 00:02:57;;;;;;;;;;;12.80;97.10;;;;;;5060435;28;20392;-76
2021/09/05 00:05:23;;;;;;;;;;;12.80;97.10;;;;;;5060906;28;19909;-76
2021/09/05 00:07:48;;;;;;;;;;;12.80;97.30;;;;;;5061970;28;19952;-76
2021/09/05 00:10:14;;;;;;;;;;;12.80;97.30;;;;;;5043257;28;19924;-76
2021/09/05 00:12:41;;;;;;;;;;;12.80;97.30;;;;;;5058697;28;19920;-76
2021/09/05 00:15:08;;;;;;;;;;;12.80;97.20;;;;;;5061085;28;19924;-76
2021/09/05 00:17:33;;;;;;;;;;;12.80;97.30;;;;;;5060241;28;19920;-76
2021/09/05 00:19:58;;;;;;;;;;;12.80;97.30;;;;;;5060699;28;19913;-76
2021/09/05 00:22:24;;;;;;;;;;;12.80;97.20;;;;;;5060098;28;19909;-76
2021/09/05 00:24:49;;;;;;;;;;;12.80;97.20;;;;;;5060244;28;20443;-76
2021/09/05 00:27:15;;;;;;;;;;;12.70;97.20;;;;;;5042088;28;19909;-76
2021/09/05 00:29:40;;;;;;;;;;;12.70;97.30;;;;;;5060221;28;20038;-76
2021/09/05 00:32:07;;;;;;;;;;;12.60;97.40;;;;;;5059564;28;20449;-76
2021/09/05 00:34:32;;;;;;;;;;;12.60;97.50;;;;;;5060098;28;20275;-76
2021/09/05 00:36:58;;;;;;;;;;;12.60;97.60;;;;;;5060462;28;19930;-76
2021/09/05 00:39:23;;;;;;;;;;;12.60;97.60;;;;;;5059921;28;19909;-76
2021/09/05 00:41:48;;;;;;;;;;;12.50;97.60;;;;;;5041387;28;19913;-76
2021/09/05 00:44:14;;;;;;;;;;;12.50;97.60;;;;;;5060234;28;19908;-76
2021/09/05 00:46:40;;;;;;;;;;;12.50;97.80;;;;;;5059564;28;19939;-76
2021/09/05 00:49:06;;;;;;;;;;;12.50;97.80;;;;;;5059710;28;20294;-76
2021/09/05 00:51:34;;;;;;;;;;;12.50;97.80;;;;;;5059745;28;19919;-76
2021/09/05 00:54:00;;;;;;;;;;;12.50;97.80;;;;;;5059750;28;20348;-76
2021/09/05 00:56:27;;;;;;;;;;;12.50;97.60;;;;;;5060152;28;20031;-76
2021/09/05 00:58:53;;;;;;;;;;;12.50;97.80;;;;;;5059588;28;19920;-76
2021/09/05 01:01:19;;;;;;;;;;;12.50;97.70;;;;;;5058971;28;19999;-76
2021/09/05 01:03:44;;;;;;;;;;;12.40;97.80;;;;;;5059577;28;20007;-76
2021/09/05 01:06:10;;;;;;;;;;;12.40;97.70;;;;;;5060104;28;20386;-76
2021/09/05 01:08:35;;;;;;;;;;;12.30;97.60;;;;;;5060035;28;19909;-76
2021/09/05 01:11:01;;;;;;;;;;;12.30;97.50;;;;;;5058349;28;20337;-76
2021/09/05 01:13:27;;;;;;;;;;;12.30;97.50;;;;;;5059616;28;19977;-76
2021/09/05 01:15:52;;;;;;;;;;;12.30;97.60;;;;;;5059197;28;20372;-76
2021/09/05 01:18:17;;;;;;;;;;;12.30;97.70;;;;;;5041280;28;19909;-76
2021/09/05 01:20:43;;;;;;;;;;;12.30;97.80;;;;;;5058836;28;19962;-76
2021/09/05 01:23:08;;;;;;;;;;;12.30;97.80;;;;;;5058288;28;20355;-76
2021/09/05 01:25:34;;;;;;;;;;;12.20;97.70;;;;;;5058710;28;19909;-76
2021/09/05 01:27:59;;;;;;;;;;;12.20;97.70;;;;;;5059236;28;20249;-76
2021/09/05 01:30:25;;;;;;;;;;;12.20;97.80;;;;;;5059538;28;19942;-76
2021/09/05 01:32:50;;;;;;;;;;;12.10;97.80;;;;;;5058168;28;19912;-76
2021/09/05 01:35:16;;;;;;;;;;;12.20;97.90;;;;;;5059617;28;19951;-76
2021/09/05 01:37:41;;;;;;;;;;;12.10;97.80;;;;;;5059061;28;19958;-76
2021/09/05 01:40:07;;;;;;;;;;;12.10;98.00;;;;;;5058814;28;20016;-76
2021/09/05 01:42:32;;;;;;;;;;;12.10;98.10;;;;;;5058727;28;20000;-76
2021/09/05 01:44:58;;;;;;;;;;;12.10;98.00;;;;;;5059215;28;19920;-76
2021/09/05 01:47:23;;;;;;;;;;;12.10;97.90;;;;;;5059261;28;19954;-76
2021/09/05 01:49:49;;;;;;;;;;;12.00;97.80;;;;;;5059305;28;19912;-76
2021/09/05 01:52:15;;;;;;;;;;;12.00;97.80;;;;;;5057618;28;19961;-76
2021/09/05 01:54:40;;;;;;;;;;;12.00;97.90;;;;;;5059030;28;20016;-76
2021/09/05 01:57:06;;;;;;;;;;;12.00;98.00;;;;;;5058821;28;19919;-76
2021/09/05 01:59:31;;;;;;;;;;;12.00;98.00;;;;;;5059045;28;19913;-76
2021/09/05 02:01:57;;;;;;;;;;;12.00;98.00;;;;;;5057705;28;19913;-76
2021/09/05 02:04:22;;;;;;;;;;;11.90;98.20;;;;;;5058631;28;19920;-76
2021/09/05 02:06:49;;;;;;;;;;;11.90;98.10;;;;;;5058722;28;19927;-76
2021/09/05 02:09:15;;;;;;;;;;;11.90;98.00;;;;;;5058740;28;19912;-76
2021/09/05 02:11:40;;;;;;;;;;;11.90;98.10;;;;;;5039967;28;20264;-76
2021/09/05 02:14:06;;;;;;;;;;;11.90;98.10;;;;;;5058444;28;20591;-76
2021/09/05 02:16:31;;;;;;;;;;;11.90;98.20;;;;;;5058447;28;19935;-76
2021/09/05 02:18:57;;;;;;;;;;;11.80;98.00;;;;;;5058576;28;19923;-76
2021/09/05 02:21:22;;;;;;;;;;;11.80;98.00;;;;;;5058192;28;19952;-76
2021/09/05 02:23:47;;;;;;;;;;;11.70;97.90;;;;;;5057963;28;19935;-76
2021/09/05 02:26:13;;;;;;;;;;;11.60;97.60;;;;;;5058636;28;20315;-76
2021/09/05 02:28:38;;;;;;;;;;;11.40;97.70;;;;;;5059073;28;20010;-76
2021/09/05 02:31:04;;;;;;;;;;;11.30;97.80;;;;;;5057574;28;19956;-76
2021/09/05 02:33:29;;;;;;;;;;;11.20;98.10;;;;;;5057516;28;20080;-76
2021/09/05 02:35:55;;;;;;;;;;;11.10;98.30;;;;;;5058442;28;19912;-76
2021/09/05 02:38:21;;;;;;;;;;;11.10;98.40;;;;;;5058143;28;20380;-76
2021/09/05 02:40:46;;;;;;;;;;;11.10;98.40;;;;;;5057672;28;19963;-76
2021/09/05 02:43:11;;;;;;;;;;;11.00;98.30;;;;;;5057086;28;19920;-76
2021/09/05 02:45:37;;;;;;;;;;;11.00;98.50;;;;;;5057590;28;19923;-76
2021/09/05 02:48:03;;;;;;;;;;;11.10;98.70;;;;;;5057350;28;20363;-76
2021/09/05 02:50:29;;;;;;;;;;;11.10;98.50;;;;;;5058071;28;20431;-76
2021/09/05 02:52:54;;;;;;;;;;;11.10;98.40;;;;;;5057243;28;20066;-76
2021/09/05 02:55:19;;;;;;;;;;;11.10;98.40;;;;;;5039995;28;19913;-76
2021/09/05 02:57:45;;;;;;;;;;;11.10;98.40;;;;;;5057320;28;19920;-76
2021/09/05 03:00:11;;;;;;;;;;;11.00;98.80;;;;;;5058126;28;19912;-76
2021/09/05 03:02:37;;;;;;;;;;;10.90;99.00;;;;;;5056346;28;20320;-76
2021/09/05 03:05:02;;;;;;;;;;;10.80;99.30;;;;;;5057662;28;20348;-76
2021/09/05 03:07:28;;;;;;;;;;;10.80;99.20;;;;;;5039292;28;19916;-76
2021/09/05 03:09:53;;;;;;;;;;;10.80;99.10;;;;;;5058002;28;19912;-76
2021/09/05 03:12:23;;;;;;;;;;;10.80;99.10;;;;;;5056426;28;19932;-77
2021/09/05 03:14:48;;;;;;;;;;;10.80;99.00;;;;;;5057701;28;19954;-76
2021/09/05 03:17:14;;;;;;;;;;;10.80;98.90;;;;;;5056497;28;19912;-76
2021/09/05 03:19:39;;;;;;;;;;;10.80;98.90;;;;;;5057936;28;20379;-76
2021/09/05 03:22:04;;;;;;;;;;;10.80;98.90;;;;;;5056603;28;19908;-76
2021/09/05 03:24:30;;;;;;;;;;;10.80;99.00;;;;;;5058048;28;19912;-76
2021/09/05 03:26:55;;;;;;;;;;;10.70;98.90;;;;;;5057076;28;19912;-76
2021/09/05 03:29:21;;;;;;;;;;;10.70;99.00;;;;;;5057238;28;19912;-76
2021/09/05 03:31:46;;;;;;;;;;;10.70;99.10;;;;;;5057429;28;19916;-76
2021/09/05 03:34:11;;;;;;;;;;;10.60;99.10;;;;;;5056688;28;20367;-76
2021/09/05 03:36:37;;;;;;;;;;;10.70;99.00;;;;;;5057884;28;19912;-76
2021/09/05 03:39:03;;;;;;;;;;;10.70;99.10;;;;;;5057093;28;19913;-76
2021/09/05 03:41:28;;;;;;;;;;;10.70;99.10;;;;;;5058341;28;20022;-76
2021/09/05 03:43:53;;;;;;;;;;;10.60;99.00;;;;;;5058250;28;20352;-76
2021/09/05 03:46:19;;;;;;;;;;;10.60;99.20;;;;;;5055986;28;19919;-76
2021/09/05 03:48:44;;;;;;;;;;;10.60;99.20;;;;;;5057647;28;19909;-76
2021/09/05 03:51:10;;;;;;;;;;;10.60;99.30;;;;;;5062107;28;19917;-76
2021/09/05 03:53:35;;;;;;;;;;;10.70;99.20;;;;;;5062636;28;20007;-76
2021/09/05 03:56:00;;;;;;;;;;;10.70;99.50;;;;;;5061754;28;19916;-76
2021/09/05 03:58:26;;;;;;;;;;;10.70;99.40;;;;;;5061267;28;19995;-76
2021/09/05 04:00:51;;;;;;;;;;;10.70;99.20;;;;;;5059706;28;19928;-76
2021/09/05 04:03:17;;;;;;;;;;;10.60;99.10;;;;;;5061209;28;19909;-76
2021/09/05 04:05:42;;;;;;;;;;;10.60;99.10;;;;;;5043385;28;19908;-76
2021/09/05 04:10:37;;;;;;;;;;;10.50;99.40;;;;;;5060837;28;20135;-76
2021/09/05 04:13:03;;;;;;;;;;;10.50;99.30;;;;;;5059835;28;19909;-76
2021/09/05 04:15:29;;;;;;;;;;;10.40;99.70;;;;;;5059859;28;19908;-76
2021/09/05 04:17:55;;;;;;;;;;;10.30;99.90;;;;;;5038853;28;20439;-76
2021/09/05 04:20:21;;;;;;;;;;;10.20;99.90;;;;;;5060250;28;19954;-76
2021/09/05 04:22:46;;;;;;;;;;;10.20;99.90;;;;;;5042944;28;19917;-76
2021/09/05 04:25:12;;;;;;;;;;;10.20;99.90;;;;;;5061580;28;20310;-76
2021/09/05 04:27:37;;;;;;;;;;;10.20;99.90;;;;;;5059952;28;20413;-75
2021/09/05 04:30:04;;;;;;;;;;;10.20;99.90;;;;;;5058723;28;19916;-76
2021/09/05 04:32:29;;;;;;;;;;;10.10;99.90;;;;;;5058304;28;20024;-76
2021/09/05 04:34:54;;;;;;;;;;;10.00;99.90;;;;;;5043274;28;20723;-76
2021/09/05 04:37:20;;;;;;;;;;;10.00;99.90;;;;;;5061709;28;19908;-75
2021/09/05 04:39:46;;;;;;;;;;;10.00;99.90;;;;;;5059836;28;19954;-76
2021/09/05 04:42:12;;;;;;;;;;;9.90;99.90;;;;;;5059411;28;19951;-76
2021/09/05 04:44:38;;;;;;;;;;;10.00;99.90;;;;;;5060483;28;19951;-76
2021/09/05 04:47:04;;;;;;;;;;;10.00;99.90;;;;;;5059010;28;19971;-75
2021/09/05 04:49:30;;;;;;;;;;;10.00;99.90;;;;;;5060186;28;19909;-75
2021/09/05 04:51:56;;;;;;;;;;;10.00;99.90;;;;;;5058928;28;19916;-76
2021/09/05 04:54:21;;;;;;;;;;;10.10;99.90;;;;;;5059892;28;20380;-75
2021/09/05 04:56:46;;;;;;;;;;;10.10;99.90;;;;;;5060099;28;20443;-75
2021/09/05 04:59:12;;;;;;;;;;;10.20;99.90;;;;;;5058932;28;20074;-76
2021/09/05 05:01:37;;;;;;;;;;;10.30;99.90;;;;;;5058077;28;19915;-75
2021/09/05 05:04:03;;;;;;;;;;;10.30;99.90;;;;;;5059003;28;19966;-76
2021/09/05 05:06:28;;;;;;;;;;;10.30;99.90;;;;;;5059513;28;20233;-76
2021/09/05 05:08:54;;;;;;;;;;;10.40;99.90;;;;;;5059117;28;20332;-75
2021/09/05 05:11:19;;;;;;;;;;;10.50;99.90;;;;;;5058553;28;20022;-76
2021/09/05 05:13:45;;;;;;;;;;;10.50;99.90;;;;;;5059455;28;19958;-75
2021/09/05 05:16:10;;;;;;;;;;;10.60;99.90;;;;;;5058820;28;20376;-76
2021/09/05 05:18:36;;;;;;;;;;;10.60;99.90;;;;;;5059564;28;20010;-76
2021/09/05 05:21:01;;;;;;;;;;;10.60;99.90;;;;;;5058838;28;19909;-75
2021/09/05 05:23:28;;;;;;;;;;;10.60;99.90;;;;;;5058571;28;19920;-75
2021/09/05 05:25:53;;;;;;;;;;;10.50;99.90;;;;;;5058584;28;19913;-76
2021/09/05 05:28:19;;;;;;;;;;;10.30;99.90;;;;;;5059002;28;19966;-75
2021/09/05 05:30:44;;;;;;;;;;;10.20;99.90;;;;;;5059013;28;19948;-76
2021/09/05 05:33:09;;;;;;;;;;;10.20;99.90;;;;;;5058077;28;20023;-76
2021/09/05 05:35:35;;;;;;;;;;;10.10;99.90;;;;;;5059039;28;20356;-76
2021/09/05 05:38:00;;;;;;;;;;;10.00;99.90;;;;;;5058254;28;19921;-76
2021/09/05 05:40:26;;;;;;;;;;;10.10;99.90;;;;;;5058901;28;19951;-76
2021/09/05 05:42:52;;;;;;;;;;;10.10;99.90;;;;;;5057741;28;19925;-76
2021/09/05 05:45:18;;;;;;;;;;;10.10;99.90;;;;;;5058830;28;19919;-76
2021/09/05 05:47:46;;;;;;;;;;;10.10;99.90;;;;;;5057779;28;19916;-76
2021/09/05 05:50:12;;;;;;;;;;;10.00;99.90;;;;;;5058889;28;20011;-76
2021/09/05 05:52:37;;;;;;;;;;;10.00;99.90;;;;;;5057149;28;19995;-75
2021/09/05 05:55:03;;;;;;;;;;;10.10;99.90;;;;;;5058748;28;20414;-76
2021/09/05 05:57:29;;;;;;;;;;;10.10;99.90;;;;;;5058498;28;19916;-75
2021/09/05 05:59:54;;;;;;;;;;;10.10;99.90;;;;;;5058827;28;19916;-76
2021/09/05 06:02:19;;;;;;;;;;;10.10;99.90;;;;;;5057304;28;19977;-75
2021/09/05 06:04:45;;;;;;;;;;;10.10;99.90;;;;;;5058718;28;20261;-76
2021/09/05 06:07:10;;;;;;;;;;;10.20;99.90;;;;;;5090986;22;19936;-73
2021/09/05 06:09:39;;;;;;;;;;;10.30;99.90;;;;;;5088734;28;20015;-73
2021/09/05 06:12:05;;;;;;;;;;;10.40;99.90;;;;;;5087674;28;20022;-73
2021/09/05 06:14:30;;;;;;;;;;;10.50;99.90;;;;;;5088819;28;19977;-73
2021/09/05 06:16:56;;;;;;;;;;;10.70;99.90;;;;;;5098988;28;19908;-73
2021/09/05 06:19:21;;;;;;;;;;;10.70;99.90;;;;;;5067020;28;19919;-73
2021/09/05 06:21:47;;;;;;;;;;;10.80;99.90;;;;;;5066659;28;20271;-73
2021/09/05 06:24:12;;;;;;;;;;;10.80;99.90;;;;;;5067377;28;19923;-73
2021/09/05 06:26:39;;;;;;;;;;;10.80;99.90;;;;;;5068111;28;19909;-73
2021/09/05 06:29:04;;;;;;;;;;;10.90;99.90;;;;;;5067840;28;20492;-73
2021/09/05 06:31:29;;;;;;;;;;;11.00;99.90;;;;;;5067430;28;19924;-73
2021/09/05 06:33:55;;;;;;;;;;;11.10;99.90;;;;;;5066153;28;19916;-73
2021/09/05 06:36:20;;;;;;;;;;;11.10;99.90;;;;;;5066168;28;19905;-73
2021/09/05 06:38:46;;;;;;;;;;;11.20;99.90;;;;;;5067391;28;19908;-73
2021/09/05 06:41:11;;;;;;;;;;;11.30;99.90;;;;;;5066004;28;19908;-73
2021/09/05 06:43:37;;;;;;;;;;;11.40;99.90;;;;;;5066497;28;19909;-73
2021/09/05 06:46:02;;;;;;;;;;;11.50;99.90;;;;;;5067935;28;19912;-73
2021/09/05 06:48:28;;;;;;;;;;;11.50;99.90;;;;;;5091313;28;19958;-73
2021/09/05 06:50:53;;;;;;;;;;;11.50;99.90;;;;;;5066862;28;20326;-73
2021/09/05 06:53:18;;;;;;;;;;;11.60;99.90;;;;;;5067467;28;19920;-73
2021/09/05 06:55:44;;;;;;;;;;;11.60;99.90;;;;;;5065533;28;19958;-73
2021/09/05 06:58:09;;;;;;;;;;;11.60;99.90;;;;;;5067472;28;19908;-73
2021/09/05 07:00:35;;;;;;;;;;;11.60;99.90;;;;;;5067535;28;20291;-73
2021/09/05 07:03:00;;;;;;;;;;;11.60;99.90;;;;;;5066508;28;19956;-73
2021/09/05 07:05:26;;;;;;;;;;;11.60;99.90;;;;;;5067733;28;20361;-73
2021/09/05 07:07:51;;;;;;;;;;;11.80;99.90;;;;;;5091072;28;20016;-73
2021/09/05 07:10:16;;;;;;;;;;;11.80;99.90;;;;;;5066048;28;19912;-73
2021/09/05 07:12:42;;;;;;;;;;;11.90;99.90;;;;;;5065909;28;19919;-73
2021/09/05 07:15:08;;;;;;;;;;;11.90;99.90;;;;;;5067452;28;19944;-73
2021/09/05 07:17:34;;;;;;;;;;;12.00;99.90;;;;;;5066436;28;20374;-73
2021/09/05 07:19:59;;;;;;;;;;;12.10;99.90;;;;;;5067744;28;19962;-73
2021/09/05 07:22:25;;;;;;;;;;;12.30;99.90;;;;;;5057639;28;20435;-73
2021/09/05 07:24:50;;;;;;;;;;;12.40;99.90;;;;;;5071026;28;19913;-73
2021/09/05 07:27:16;;;;;;;;;;;12.50;99.90;;;;;;5062309;28;19958;-73
2021/09/05 07:29:41;;;;;;;;;;;12.50;99.90;;;;;;5071027;28;19909;-73
2021/09/05 07:32:06;;;;;;;;;;;12.50;99.90;;;;;;5069907;28;20344;-74
2021/09/05 07:34:32;;;;;;;;;;;12.60;99.90;;;;;;5069708;28;20378;-73
2021/09/05 07:36:57;;;;;;;;;;;12.60;99.90;;;;;;5069087;28;19955;-73
2021/09/05 07:39:23;;;;;;;;;;;12.70;99.90;;;;;;5071538;28;20011;-73
2021/09/05 07:41:48;;;;;;;;;;;12.80;99.90;;;;;;5070213;28;20019;-73
2021/09/05 07:44:14;;;;;;;;;;;12.70;99.90;;;;;;5070152;28;19909;-73
2021/09/05 07:46:39;;;;;;;;;;;12.80;99.90;;;;;;5070439;28;19954;-74
2021/09/05 07:49:04;;;;;;;;;;;12.90;99.90;;;;;;5069284;28;20434;-73
2021/09/05 07:51:30;;;;;;;;;;;12.90;99.90;;;;;;5070430;28;19927;-73
2021/09/05 07:53:55;;;;;;;;;;;13.10;99.90;;;;;;5070144;28;19962;-74
2021/09/05 07:56:21;;;;;;;;;;;13.20;99.90;;;;;;5070825;28;19958;-73
2021/09/05 07:58:47;;;;;;;;;;;13.30;99.90;;;;;;5070698;28;19912;-73
2021/09/05 08:01:13;;;;;;;;;;;13.30;99.90;;;;;;5069336;28;20008;-73
2021/09/05 08:03:39;;;;;;;;;;;13.30;99.90;;;;;;5069831;28;19915;-73
2021/09/05 08:06:06;;;;;;;;;;;13.30;99.90;;;;;;5070584;28;20062;-74
2021/09/05 08:08:31;;;;;;;;;;;13.30;99.90;;;;;;5068908;28;20401;-73
2021/09/05 08:10:56;;;;;;;;;;;13.30;99.90;;;;;;5068486;28;19913;-73
2021/09/05 08:13:22;;;;;;;;;;;13.20;99.90;;;;;;5068503;28;19919;-74
2021/09/05 08:15:47;;;;;;;;;;;13.20;99.90;;;;;;5068766;28;20045;-73
2021/09/05 08:18:13;;;;;;;;;;;13.30;99.90;;;;;;5069506;28;19916;-73
2021/09/05 08:20:38;;;;;;;;;;;13.40;99.90;;;;;;5068614;28;20390;-73
2021/09/05 08:23:04;;;;;;;;;;;13.50;99.90;;;;;;5067594;28;19912;-74
2021/09/05 08:25:29;;;;;;;;;;;13.60;99.90;;;;;;5069032;28;20302;-73
2021/09/05 08:27:55;;;;;;;;;;;13.70;99.90;;;;;;5069679;28;20262;-73
2021/09/05 08:30:20;;;;;;;;;;;13.70;99.90;;;;;;5068855;28;19959;-74
2021/09/05 08:32:46;;;;;;;;;;;13.80;99.90;;;;;;5067123;28;19943;-73
2021/09/05 08:35:11;;;;;;;;;;;13.90;99.90;;;;;;5069772;28;19920;-74
2021/09/05 08:37:37;;;;;;;;;;;14.00;99.90;;;;;;5069878;28;19908;-73
2021/09/05 08:40:03;;;;;;;;;;;14.20;99.90;;;;;;5069799;28;19934;-74
2021/09/05 08:42:32;;;;;;;;;;;14.40;99.70;;;;;;5067522;28;19991;-74
2021/09/05 08:44:58;;;;;;;;;;;14.50;99.50;;;;;;5069226;28;19919;-73
2021/09/05 08:47:23;;;;;;;;;;;14.50;99.50;;;;;;5058412;28;19912;-73
2021/09/05 08:49:50;;;;;;;;;;;14.50;99.20;;;;;;5070076;28;19909;-74
2021/09/05 08:52:15;;;;;;;;;;;14.50;99.30;;;;;;5068999;28;20354;-74
2021/09/05 08:54:41;;;;;;;;;;;14.50;99.30;;;;;;5069905;28;20004;-74
2021/09/05 08:57:06;;;;;;;;;;;14.60;99.20;;;;;;5070273;28;19920;-74
2021/09/05 08:59:32;;;;;;;;;;;14.70;99.00;;;;;;5068360;28;19915;-74
2021/09/05 09:02:01;;;;;;;;;;;14.80;99.00;;;;;;5092965;28;20261;-74
2021/09/05 09:04:34;;;;;;;;;;;14.80;98.80;;;;;;5069442;28;20390;-74
2021/09/05 09:07:06;;;;;;;;;;;14.90;98.60;;;;;;5093338;28;19916;-74
2021/09/05 09:09:32;;;;;;;;;;;15.00;98.60;;;;;;5069926;28;19916;-74
2021/09/05 09:11:58;;;;;;;;;;;15.00;98.40;;;;;;5068491;28;19920;-74
2021/09/05 09:14:24;;;;;;;;;;;15.00;98.40;;;;;;5069259;28;19912;-74
2021/09/05 09:16:50;;;;;;;;;;;15.10;98.40;;;;;;5068861;28;19950;-74
2021/09/05 09:19:25;;;;;;;;;;;15.10;98.40;;;;;;5069510;28;20003;-74
2021/09/05 09:21:51;;;;;;;;;;;15.20;98.10;;;;;;5068290;28;19912;-74
2021/09/05 09:24:21;;;;;;;;;;;15.30;98.20;;;;;;5067245;28;19908;-72
2021/09/05 09:27:04;;;;;;;;;;;15.40;98.40;;;;;;5068756;28;20355;-73
2021/09/05 09:29:30;;;;;;;;;;;15.60;98.20;;;;;;5068951;28;19919;-73
2021/09/05 09:31:57;;;;;;;;;;;15.80;97.90;;;;;;5067969;28;20379;-73
2021/09/05 09:34:22;;;;;;;;;;;15.90;97.40;;;;;;5067087;28;19908;-73
2021/09/05 09:36:54;;;;;;;;;;;15.90;97.50;;;;;;5068932;28;19918;-73
2021/09/05 09:39:19;;;;;;;;;;;16.10;97.50;;;;;;5069096;28;19908;-73
2021/09/05 09:41:45;;;;;;;;;;;16.10;96.80;;;;;;5068435;28;20243;-73
2021/09/05 09:44:13;;;;;;;;;;;16.10;97.10;;;;;;5068456;28;19912;-73
2021/09/05 09:46:39;;;;;;;;;;;16.20;97.00;;;;;;5066754;28;19909;-73
2021/09/05 09:49:06;;;;;;;;;;;16.20;96.90;;;;;;5068962;28;19912;-73
2021/09/05 09:51:32;;;;;;;;;;;16.20;96.80;;;;;;5067395;28;19959;-73
2021/09/05 09:53:58;;;;;;;;;;;16.20;96.80;;;;;;5067744;28;19983;-73
2021/09/05 09:56:24;;;;;;;;;;;16.20;96.60;;;;;;5066846;28;19955;-73
2021/09/05 09:58:50;;;;;;;;;;;16.20;96.80;;;;;;5068167;28;19916;-73
2021/09/05 10:01:17;;;;;;;;;;;16.30;96.80;;;;;;5066434;28;20372;-73
2021/09/05 10:03:43;;;;;;;;;;;16.40;96.40;;;;;;5068048;28;20290;-73
2021/09/05 10:06:10;;;;;;;;;;;16.40;96.50;;;;;;5067095;28;20279;-73
2021/09/05 10:08:38;;;;;;;;;;;16.50;96.20;;;;;;5068782;28;20030;-73
2021/09/05 10:11:04;;;;;;;;;;;16.60;96.20;;;;;;5067666;28;19966;-73
2021/09/05 10:13:30;;;;;;;;;;;16.70;95.90;;;;;;5092144;28;20338;-73
2021/09/05 10:15:56;;;;;;;;;;;16.90;95.70;;;;;;5068055;28;19916;-73
2021/09/05 10:18:21;;;;;;;;;;;16.90;95.50;;;;;;5067958;28;19912;-73
2021/09/05 10:20:47;;;;;;;;;;;17.00;95.60;;;;;;5067971;28;19917;-73
2021/09/05 10:23:12;;;;;;;;;;;17.00;95.20;;;;;;5068141;28;19920;-73
2021/09/05 10:25:38;;;;;;;;;;;17.10;95.10;;;;;;5067140;28;19971;-73
2021/09/05 10:28:05;;;;;;;;;;;17.10;95.10;;;;;;5068211;28;19943;-73
2021/09/05 10:30:30;;;;;;;;;;;17.20;95.10;;;;;;5066783;28;19917;-73
2021/09/05 10:32:58;;;;;;;;;;;17.20;95.10;;;;;;5066797;28;19916;-73
2021/09/05 10:35:39;;;;;;;;;;;17.20;95.20;;;;;;5067528;28;19908;-73
2021/09/05 10:38:08;;;;;;;;;;;17.20;95.30;;;;;;5066653;28;20542;-73
2021/09/05 10:40:47;;;;;;;;;;;17.20;95.20;;;;;;5066807;28;20346;-73
2021/09/05 10:43:13;;;;;;;;;;;17.20;95.20;;;;;;5067782;28;19948;-73
2021/09/05 10:45:39;;;;;;;;;;;17.20;95.20;;;;;;5066638;28;19909;-74
2021/09/05 10:48:23;;;;;;;;;;;17.30;95.30;;;;;;5067207;28;19909;-73
2021/09/05 10:50:49;;;;;;;;;;;17.30;94.80;;;;;;5067407;28;20026;-74
2021/09/05 10:53:16;;;;;;;;;;;17.20;95.10;;;;;;5068163;28;20015;-73
2021/09/05 10:56:00;;;;;;;;;;;17.20;95.20;;;;;;5068148;28;19916;-74
2021/09/05 10:58:33;;;;;;;;;;;17.30;95.10;;;;;;5070066;28;19916;-74
2021/09/05 11:01:22;;;;;;;;;;;17.30;95.10;;;;;;5071499;28;19928;-73
2021/09/05 11:04:06;;;;;;;;;;;17.30;95.10;;;;;;5025321;28;19930;-73
2021/09/05 11:06:36;;;;;;;;;;;17.30;95.20;;;;;;5070367;28;20090;-74
2021/09/05 11:09:23;;;;;;;;;;;17.40;95.00;;;;;;5070300;28;19920;-74
2021/09/05 11:12:01;;;;;;;;;;;17.40;95.10;;;;;;5094648;28;19913;-74
2021/09/05 11:14:35;;;;;;;;;;;17.40;95.20;;;;;;5071793;28;19954;-74
2021/09/05 11:17:01;;;;;;;;;;;17.50;95.20;;;;;;5071082;28;19991;-73
2021/09/05 11:19:27;;;;;;;;;;;17.60;95.20;;;;;;5095867;28;19913;-73
2021/09/05 11:21:52;;;;;;;;;;;17.70;94.90;;;;;;5070755;28;19916;-73
2021/09/05 11:24:18;;;;;;;;;;;17.70;94.70;;;;;;5071004;28;20284;-74
2021/09/05 11:26:59;;;;;;;;;;;17.70;94.90;;;;;;5071394;28;19912;-73
2021/09/05 11:29:25;;;;;;;;;;;17.70;94.80;;;;;;5071843;28;19913;-73
2021/09/05 11:31:51;;;;;;;;;;;17.70;94.60;;;;;;5070128;28;19912;-73
2021/09/05 11:34:16;;;;;;;;;;;17.70;94.70;;;;;;5071375;28;20007;-74
2021/09/05 11:36:45;;;;;;;;;;;17.80;94.60;;;;;;5069159;28;19948;-73
2021/09/05 11:39:10;;;;;;;;;;;17.80;94.40;;;;;;5071620;28;19919;-73
2021/09/05 11:41:36;;;;;;;;;;;17.80;94.30;;;;;;5070514;28;20007;-73
2021/09/05 11:44:01;;;;;;;;;;;17.70;94.20;;;;;;5069569;28;19912;-73
2021/09/05 11:46:26;;;;;;;;;;;17.70;94.30;;;;;;5070546;28;19912;-74
2021/09/05 11:48:56;;;;;;;;;;;17.80;94.30;;;;;;5071527;28;20177;-73
2021/09/05 11:51:22;;;;;;;;;;;17.80;94.20;;;;;;5070546;28;19920;-74
2021/09/05 11:53:57;;;;;;;;;;;17.80;94.00;;;;;;5070835;28;19908;-73
2021/09/05 11:56:22;;;;;;;;;;;17.80;94.00;;;;;;5070499;28;19909;-74
2021/09/05 11:58:48;;;;;;;;;;;17.90;94.10;;;;;;5071069;28;20004;-73
2021/09/05 12:01:13;;;;;;;;;;;17.90;94.10;;;;;;5068197;28;19915;-74
2021/09/05 12:03:39;;;;;;;;;;;18.00;94.10;;;;;;5071191;28;19947;-74
2021/09/05 12:06:08;;;;;;;;;;;18.00;93.50;;;;;;5070195;28;19913;-74
2021/09/05 12:08:34;;;;;;;;;;;17.90;93.50;;;;;;5103021;22;19924;-77
2021/09/05 12:11:00;;;;;;;;;;;17.70;93.80;;;;;;5071268;28;19966;-77
2021/09/05 12:13:25;;;;;;;;;;;17.60;94.10;;;;;;5071189;28;20004;-78
2021/09/05 12:15:51;;;;;;;;;;;17.70;94.10;;;;;;5071518;28;20277;-78
2021/09/05 12:18:17;;;;;;;;;;;17.70;94.00;;;;;;5073684;28;20323;-78
2021/09/05 12:20:43;;;;;;;;;;;17.80;94.10;;;;;;5070835;28;19916;-77
2021/09/05 12:23:22;;;;;;;;;;;17.90;93.90;;;;;;5068787;28;19934;-76
2021/09/05 12:25:48;;;;;;;;;;;18.00;93.40;;;;;;5067913;28;19908;-76
2021/09/05 12:28:19;;;;;;;;;;;17.80;93.70;;;;;;5070929;28;19974;-77
2021/09/05 12:30:50;;;;;;;;;;;17.70;93.90;;;;;;5070904;28;19912;-77
2021/09/05 12:33:25;;;;;;;;;;;17.70;93.90;;;;;;5085666;28;19986;-77
2021/09/05 12:35:51;;;;;;;;;;;17.80;93.90;;;;;;5070973;28;19984;-77
2021/09/05 12:38:26;;;;;;;;;;;17.80;93.90;;;;;;5072442;28;20325;-77
2021/09/05 12:40:53;;;;;;;;;;;17.70;93.70;;;;;;5071862;28;19913;-76
2021/09/05 12:43:38;;;;;;;;;;;17.70;93.90;;;;;;5070962;28;19935;-76
2021/09/05 12:46:03;;;;;;;;;;;17.50;94.20;;;;;;5070975;28;20007;-77
2021/09/05 12:48:34;;;;;;;;;;;17.50;94.30;;;;;;5071614;28;20345;-78
2021/09/05 12:51:00;;;;;;;;;;;17.50;94.30;;;;;;5067820;28;19922;-77
2021/09/05 12:53:26;;;;;;;;;;;17.60;94.10;;;;;;5086915;28;20795;-76
2021/09/05 12:55:52;;;;;;;;;;;17.40;94.40;;;;;;5072195;28;19958;-77
2021/09/05 12:58:17;;;;;;;;;;;17.40;94.40;;;;;;5071694;28;19920;-77
2021/09/05 13:00:42;;;;;;;;;;;17.50;94.60;;;;;;5071829;28;19989;-76
2021/09/05 13:03:08;;;;;;;;;;;17.40;94.50;;;;;;5068197;28;19912;-78
2021/09/05 13:05:34;;;;;;;;;;;17.50;94.50;;;;;;5070325;28;19946;-77
2021/09/05 13:08:00;;;;;;;;;;;17.50;94.50;;;;;;5067846;28;20306;-76
2021/09/05 13:10:27;;;;;;;;;;;17.50;94.20;;;;;;5070114;28;19974;-76
2021/09/05 13:12:52;;;;;;;;;;;17.10;94.60;;;;;;5068627;28;20274;-76
2021/09/05 13:15:17;;;;;;;;;;;17.10;95.10;;;;;;5069738;28;19999;-76
2021/09/05 13:17:43;;;;;;;;;;;17.10;95.00;;;;;;5068050;28;19912;-78
2021/09/05 13:20:09;;;;;;;;;;;17.20;95.00;;;;;;5069316;28;19916;-78
2021/09/05 13:22:34;;;;;;;;;;;17.20;95.00;;;;;;5068769;28;19908;-78
2021/09/05 13:25:00;;;;;;;;;;;17.30;95.10;;;;;;5067934;28;19912;-78
2021/09/05 13:27:25;;;;;;;;;;;17.50;94.80;;;;;;5069378;28;19920;-78
2021/09/05 13:29:51;;;;;;;;;;;17.40;94.70;;;;;;5067777;28;20438;-78
2021/09/05 13:32:16;;;;;;;;;;;17.40;94.60;;;;;;5068595;28;20398;-78
2021/09/05 13:34:42;;;;;;;;;;;17.30;94.80;;;;;;5069711;28;20274;-78
2021/09/05 13:37:08;;;;;;;;;;;17.30;94.90;;;;;;5069598;28;19925;-78
2021/09/05 13:39:34;;;;;;;;;;;17.40;94.90;;;;;;5069300;28;19924;-78
2021/09/05 13:41:59;;;;;;;;;;;17.30;95.00;;;;;;5067718;28;19919;-78
2021/09/05 13:44:25;;;;;;;;;;;17.30;95.00;;;;;;5075944;28;19915;-78
2021/09/05 13:46:50;;;;;;;;;;;17.40;95.10;;;;;;5068675;28;19919;-78
2021/09/05 13:49:16;;;;;;;;;;;17.40;95.00;;;;;;5084806;28;19963;-77
2021/09/05 13:51:41;;;;;;;;;;;17.40;94.90;;;;;;5068619;28;19920;-77
2021/09/05 13:54:07;;;;;;;;;;;17.40;94.40;;;;;;5068760;28;19948;-78
2021/09/05 13:56:32;;;;;;;;;;;17.40;94.80;;;;;;5069073;28;19920;-78
2021/09/05 13:58:58;;;;;;;;;;;17.40;94.80;;;;;;5068524;28;19935;-78
2021/09/05 14:01:23;;;;;;;;;;;17.30;94.90;;;;;;5066860;28;19913;-78
2021/09/05 14:03:49;;;;;;;;;;;17.30;94.80;;;;;;5067068;28;19913;-79
2021/09/05 14:06:15;;;;;;;;;;;17.30;94.90;;;;;;5068801;28;19919;-78
2021/09/05 14:08:41;;;;;;;;;;;17.40;94.90;;;;;;5068590;28;19935;-78
2021/09/05 14:11:06;;;;;;;;;;;17.50;94.80;;;;;;5068478;28;20370;-78
2021/09/05 14:13:31;;;;;;;;;;;17.60;94.80;;;;;;5068487;28;19929;-78